Time;durP1;ratioP1;P1;durP2;ratioP2;P2;SDS_P1;SDS_P2;PMS_P1;PMS_P2;Temp;Humidity;BMP_temperature;BMP_pressure;BME280_temperature;BME280_humidity;BME280_pressure;Samples;Min_cycle;Max_cycle;Signal;HPM_P1;HPM_P2
2023/06/17 00:01:14;;;;;;;5.70;3.20;;;;;;;18.77;52.21;100451.22;5063348;28;20077;-64
2023/06/17 00:03:40;;;;;;;5.95;3.13;;;;;;;18.82;52.19;100455.34;5064462;28;20495;-64
2023/06/17 00:06:06;;;;;;;3.80;2.40;;;;;;;18.83;52.30;100466.72;5064582;28;20028;-65
2023/06/17 00:08:31;;;;;;;3.88;2.83;;;;;;;18.83;52.45;100459.66;5064250;28;20021;-65
2023/06/17 00:10:57;;;;;;;3.53;2.90;;;;;;;18.81;52.75;100458.91;5064391;28;20024;-65
2023/06/17 00:13:22;;;;;;;4.80;3.08;;;;;;;18.76;52.38;100446.84;5064295;28;20055;-64
2023/06/17 00:15:51;;;;;;;3.83;2.75;;;;;;;18.82;52.51;100455.34;5064386;28;20024;-65
2023/06/17 00:18:19;;;;;;;5.18;2.85;;;;;;;18.77;52.61;100449.41;5064125;28;20044;-64
2023/06/17 00:20:52;;;;;;;10.50;3.67;;;;;;;18.82;52.72;100452.72;5066246;28;20061;-64
2023/06/17 00:23:18;;;;;;;3.97;2.97;;;;;;;18.78;52.77;100453.78;5068103;28;20021;-65
2023/06/17 00:25:43;;;;;;;3.60;2.85;;;;;;;18.79;52.95;100455.47;5066941;28;20063;-64
2023/06/17 00:28:09;;;;;;;3.63;2.88;;;;;;;18.73;52.77;100450.47;5067850;28;20025;-64
2023/06/17 00:30:34;;;;;;;4.30;3.05;;;;;;;18.69;52.87;100456.78;5067865;28;20048;-64
2023/06/17 00:33:00;;;;;;;4.55;3.47;;;;;;;18.66;52.64;100457.75;5067791;28;20021;-62
2023/06/17 00:35:25;;;;;;;5.70;3.67;;;;;;;18.62;52.76;100448.31;5067947;28;20161;-64
2023/06/17 00:37:51;;;;;;;4.40;3.33;;;;;;;18.54;52.67;100434.63;5067777;28;20037;-63
2023/06/17 00:40:16;;;;;;;4.95;2.88;;;;;;;18.60;52.81;100441.38;5067793;28;20024;-64
2023/06/17 00:42:41;;;;;;;6.18;3.15;;;;;;;18.59;52.66;100451.06;5067689;28;20092;-64
2023/06/17 00:45:07;;;;;;;3.25;2.60;;;;;;;18.60;52.60;100444.88;5067690;28;20085;-64
2023/06/17 00:47:33;;;;;;;8.10;3.05;;;;;;;18.56;52.48;100443.31;5066195;28;20024;-64
2023/06/17 00:49:58;;;;;;;7.28;3.85;;;;;;;18.58;52.55;100447.56;5067424;28;20103;-65
2023/06/17 00:52:25;;;;;;;3.85;2.60;;;;;;;18.57;52.50;100452.88;5067535;28;20104;-64
2023/06/17 00:54:50;;;;;;;6.43;3.20;;;;;;;18.56;52.24;100446.75;5067214;28;20035;-64
2023/06/17 00:57:16;;;;;;;8.18;3.10;;;;;;;18.50;52.27;100440.94;5067212;28;20021;-64
2023/06/17 00:59:44;;;;;;;4.22;3.00;;;;;;;18.53;52.20;100449.53;5067144;28;20028;-63
2023/06/17 01:02:11;;;;;;;4.53;3.08;;;;;;;18.52;52.23;100450.44;5067434;28;20084;-63
2023/06/17 01:04:37;;;;;;;2.92;2.33;;;;;;;18.51;52.54;100447.88;5067148;28;20102;-65
2023/06/17 01:07:09;;;;;;;3.33;2.58;;;;;;;18.51;52.69;100445.25;5067297;28;20053;-64
2023/06/17 01:09:37;;;;;;;;;;;;;;;18.52;52.52;100434.69;5067632;28;20029;-64
2023/06/17 01:12:07;;;;;;;3.28;2.60;;;;;;;18.51;52.34;100448.75;5065696;28;19912;-64
2023/06/17 01:14:33;;;;;;;4.28;3.00;;;;;;;18.47;52.69;100441.06;5066932;28;20508;-65
2023/06/17 01:17:00;;;;;;;3.72;3.05;;;;;;;18.47;52.59;100443.69;5067201;28;20037;-65
2023/06/17 01:19:26;;;;;;;3.60;2.90;;;;;;;18.50;52.60;100444.38;5067005;28;20049;-65
2023/06/17 01:21:53;;;;;;;3.10;2.35;;;;;;;18.50;52.60;100447.00;5066966;28;20023;-64
2023/06/17 01:24:30;;;;;;;4.07;3.15;;;;;;;18.48;52.54;100443.63;5065556;28;20112;-65
2023/06/17 01:26:57;;;;;;;3.00;2.70;;;;;;;18.50;52.36;100449.66;5067068;28;20448;-64
2023/06/17 01:29:23;;;;;;;4.03;2.55;;;;;;;18.54;52.19;100445.13;5066340;28;20036;-64
2023/06/17 01:31:57;;;;;;;4.43;2.65;;;;;;;18.51;52.13;100442.63;5065246;28;20036;-64
2023/06/17 01:34:39;;;;;;;3.15;2.38;;;;;;;18.52;52.29;100439.06;5066843;28;20033;-64
2023/06/17 01:37:08;;;;;;;3.15;2.55;;;;;;;18.54;52.36;100435.47;5067090;28;20021;-63
2023/06/17 01:39:36;;;;;;;2.65;2.28;;;;;;;18.58;52.12;100439.69;5066487;28;20028;-64
2023/06/17 01:42:04;;;;;;;2.78;2.47;;;;;;;18.60;52.34;100446.63;5066990;28;20025;-64
2023/06/17 01:44:32;;;;;;;2.83;2.53;;;;;;;18.52;52.40;100434.69;5064905;28;20428;-64
2023/06/17 01:46:58;;;;;;;4.90;2.92;;;;;;;18.61;52.35;100451.00;5066409;28;20029;-65
2023/06/17 01:49:24;;;;;;;3.28;2.58;;;;;;;18.58;52.33;100450.19;5066560;28;20032;-64
2023/06/17 01:51:49;;;;;;;4.65;3.13;;;;;;;18.54;52.37;100446.00;5066437;28;20033;-65
2023/06/17 01:54:15;;;;;;;6.95;3.05;;;;;;;18.52;52.30;100447.81;5066324;28;20029;-65
2023/06/17 01:56:40;;;;;;;7.22;3.03;;;;;;;18.51;51.99;100448.75;5066382;28;20139;-64
2023/06/17 01:59:05;;;;;;;4.28;3.05;;;;;;;18.43;52.20;100445.56;5066242;28;20025;-65
2023/06/17 02:01:31;;;;;;;6.65;2.83;;;;;;;18.41;51.98;100447.41;5066545;28;20052;-64
2023/06/17 02:03:57;;;;;;;3.67;2.83;;;;;;;18.40;52.35;100449.16;5066175;28;20036;-64
2023/06/17 02:06:23;;;;;;;7.20;3.15;;;;;;;18.37;52.29;100446.66;5066400;28;20563;-65
2023/06/17 02:08:48;;;;;;;5.95;2.95;;;;;;;18.32;52.22;100444.22;5066229;28;20496;-65
2023/06/17 02:11:14;;;;;;;4.40;3.40;;;;;;;18.25;52.19;100447.16;5065107;28;20044;-65
2023/06/17 02:13:40;;;;;;;5.00;2.90;;;;;;;18.26;51.91;100448.88;5066024;28;20021;-65
2023/06/17 02:16:05;;;;;;;3.38;2.85;;;;;;;18.08;51.88;100423.25;5064851;28;20048;-64
2023/06/17 02:18:32;;;;;;;4.70;3.13;;;;;;;18.19;52.09;100446.50;5065896;28;20112;-64
2023/06/17 02:20:59;;;;;;;3.95;3.30;;;;;;;18.17;52.05;100443.09;5065921;28;20044;-65
2023/06/17 02:23:25;;;;;;;5.53;3.28;;;;;;;18.20;52.06;100452.59;5066065;28;20055;-64
2023/06/17 02:25:51;;;;;;;4.50;3.03;;;;;;;18.26;52.45;100449.72;5066003;28;20016;-64
2023/06/17 02:28:17;;;;;;;5.80;2.97;;;;;;;18.27;52.79;100447.97;5065654;28;20079;-65
2023/06/17 02:30:42;;;;;;;5.18;3.33;;;;;;;18.29;52.50;100444.34;5065787;28;20040;-65
2023/06/17 02:33:08;;;;;;;3.42;2.83;;;;;;;18.32;52.42;100454.72;5064533;28;20025;-67
2023/06/17 02:35:33;;;;;;;5.57;3.33;;;;;;;18.36;52.64;100459.88;5065731;28;20024;-64
2023/06/17 02:37:59;;;;;;;6.72;3.83;;;;;;;18.30;52.80;100443.44;5065445;28;20033;-64
2023/06/17 02:40:24;;;;;;;4.05;3.05;;;;;;;18.35;52.77;100448.50;5065630;28;20025;-64
2023/06/17 02:42:50;;;;;;;4.28;3.33;;;;;;;18.36;52.58;100457.25;5064739;28;20377;-65
2023/06/17 02:45:15;;;;;;;4.03;2.83;;;;;;;18.39;52.68;100465.84;5065526;28;20021;-64
2023/06/17 02:47:42;;;;;;;4.93;3.25;;;;;;;18.36;52.69;100459.88;5065595;28;20496;-64
2023/06/17 02:50:08;;;;;;;5.22;3.20;;;;;;;18.39;52.43;100457.97;5065381;28;20100;-64
2023/06/17 02:52:34;;;;;;;4.72;3.50;;;;;;;18.45;52.76;100467.41;5065314;28;20036;-64
2023/06/17 02:55:01;;;;;;;6.05;2.47;;;;;;;18.47;52.42;100460.28;5065270;28;20050;-65
2023/06/17 02:57:27;;;;;;;6.50;3.15;;;;;;;18.52;52.60;100454.84;5065366;28;20097;-64
2023/06/17 02:59:52;;;;;;;3.72;2.58;;;;;;;18.55;52.19;100458.22;5065165;28;20052;-63
2023/06/17 03:02:18;;;;;;;3.45;3.15;;;;;;;18.56;52.30;100452.03;5065570;28;20017;-64
2023/06/17 03:04:43;;;;;;;4.50;3.22;;;;;;;18.68;52.33;100460.31;5063718;28;20084;-64
2023/06/17 03:07:11;;;;;;;3.05;2.75;;;;;;;18.70;52.32;100445.34;5065209;28;20052;-64
2023/06/17 03:09:37;;;;;;;4.30;3.15;;;;;;;18.83;52.49;100446.53;5065007;28;20489;-63
2023/06/17 03:12:03;;;;;;;4.55;3.15;;;;;;;19.07;52.55;100451.66;5064866;28;20040;-63
2023/06/17 03:14:29;;;;;;;8.82;2.72;;;;;;;19.36;52.75;100453.09;5064898;28;20036;-64
2023/06/17 03:16:59;;;;;;;4.45;2.90;;;;;;;19.66;52.46;100448.22;5065158;28;20083;-64
2023/06/17 03:19:25;;;;;;;2.70;2.40;;;;;;;20.03;52.25;100448.28;5064681;28;20062;-64
2023/06/17 03:21:51;;;;;;;3.28;2.67;;;;;;;20.44;51.81;100456.91;5065031;28;20058;-64
2023/06/17 03:24:17;;;;;;;4.65;3.30;;;;;;;20.80;51.46;100458.63;5064832;28;20025;-64
2023/06/17 03:26:43;;;;;;;4.57;2.97;;;;;;;21.17;50.99;100453.28;5064996;28;20045;-63
2023/06/17 03:29:08;;;;;;;3.63;2.92;;;;;;;21.64;51.07;100449.97;5064636;28;20040;-64
2023/06/17 03:31:35;;;;;;;3.47;2.70;;;;;;;22.06;50.40;100449.50;5064943;28;20043;-64
2023/06/17 03:34:00;;;;;;;3.08;2.50;;;;;;;22.37;49.96;100440.66;5064643;28;20049;-64
2023/06/17 03:36:28;;;;;;;3.00;2.63;;;;;;;22.58;49.70;100450.06;5064942;28;20048;-64
2023/06/17 03:38:54;;;;;;;3.35;2.85;;;;;;;22.82;49.62;100457.53;5064697;28;20029;-64
2023/06/17 03:41:20;;;;;;;4.32;3.38;;;;;;;23.09;49.35;100449.72;5064796;28;20047;-64
2023/06/17 03:43:46;;;;;;;4.70;3.17;;;;;;;23.39;48.23;100445.31;5064714;28;20480;-64
2023/06/17 03:46:11;;;;;;;2.38;2.08;;;;;;;23.47;47.15;100448.34;5064950;28;20040;-63
2023/06/17 03:48:36;;;;;;;3.72;2.92;;;;;;;23.55;46.91;100439.91;5064580;28;20021;-65
2023/06/17 03:51:02;;;;;;;4.70;3.13;;;;;;;23.64;46.49;100443.78;5064567;28;20047;-64
2023/06/17 03:53:28;;;;;;;7.05;3.15;;;;;;;23.72;46.34;100456.53;5066014;28;20032;-64
2023/06/17 03:55:53;;;;;;;3.78;2.88;;;;;;;23.86;45.25;100447.69;5068915;28;20052;-64
2023/06/17 03:58:19;;;;;;;4.70;2.58;;;;;;;23.87;44.60;100442.31;5068333;28;20048;-64
2023/06/17 04:00:44;;;;;;;5.63;3.20;;;;;;;23.83;43.93;100447.91;5068797;28;20021;-65
2023/06/17 04:03:11;;;;;;;3.35;3.05;;;;;;;23.75;42.96;100441.28;5068535;28;20027;-65
2023/06/17 04:05:38;;;;;;;7.45;2.30;;;;;;;23.72;42.98;100451.25;5068621;28;20024;-65
2023/06/17 04:08:06;;;;;;;4.25;3.03;;;;;;;23.75;43.16;100451.88;5068538;28;20025;-66
2023/06/17 04:10:32;;;;;;;7.05;2.97;;;;;;;23.78;42.47;100437.59;5068442;28;20021;-65
2023/06/17 04:12:57;;;;;;;5.57;3.55;;;;;;;23.91;42.71;100445.63;5068265;28;20035;-66
2023/06/17 04:15:23;;;;;;;3.47;2.47;;;;;;;24.09;42.18;100448.03;5068524;28;20295;-64
2023/06/17 04:17:48;;;;;;;3.00;2.50;;;;;;;24.26;41.98;100453.13;5066906;28;20035;-65
2023/06/17 04:20:14;;;;;;;5.78;2.85;;;;;;;24.49;41.55;100460.47;5068095;28;20102;-65
2023/06/17 04:22:40;;;;;;;3.13;2.53;;;;;;;24.69;41.52;100467.09;5068332;28;20508;-65
2023/06/17 04:25:07;;;;;;;7.63;2.90;;;;;;;24.94;41.48;100459.28;5068169;28;20031;-65
2023/06/17 04:27:33;;;;;;;4.68;2.92;;;;;;;25.18;40.75;100472.69;5068085;28;20051;-65
2023/06/17 04:29:59;;;;;;;4.20;3.35;;;;;;;25.33;39.89;100464.59;5068109;28;20422;-64
2023/06/17 04:32:27;;;;;;;4.35;3.13;;;;;;;25.55;40.33;100465.72;5068339;28;20025;-65
2023/06/17 04:34:53;;;;;;;4.03;3.33;;;;;;;25.81;39.42;100465.72;5066733;28;20037;-64
2023/06/17 04:37:19;;;;;;;3.50;2.60;;;;;;;26.00;39.75;100459.91;5068198;28;20025;-64
2023/06/17 04:39:45;;;;;;;5.13;3.20;;;;;;;26.27;38.05;100463.28;5067999;28;20021;-64
2023/06/17 04:42:12;;;;;;;5.03;3.55;;;;;;;26.38;37.00;100471.34;5067889;28;20049;-64
2023/06/17 04:44:39;;;;;;;4.30;2.30;;;;;;;26.61;37.75;100484.75;5067718;28;20021;-65
2023/06/17 04:47:09;;;;;;;4.10;2.95;;;;;;;26.80;37.95;100467.38;5066624;28;20055;-64
2023/06/17 04:49:38;;;;;;;2.87;2.57;;;;;;;27.08;37.17;100468.78;5067870;28;20024;-64
2023/06/17 04:52:08;;;;;;;5.47;2.88;;;;;;;27.50;37.24;100469.13;5067750;28;20036;-65
2023/06/17 04:54:34;;;;;;;5.72;3.22;;;;;;;27.90;37.03;100471.31;5067747;28;20021;-64
2023/06/17 04:57:00;;;;;;;4.10;2.80;;;;;;;28.43;36.67;100474.19;5067770;28;20384;-64
2023/06/17 04:59:26;;;;;;;5.65;3.42;;;;;;;28.81;36.03;100458.56;5067343;28;20021;-64
2023/06/17 05:01:51;;;;;;;3.97;2.83;;;;;;;29.27;35.06;100475.13;5067537;28;20048;-64
2023/06/17 05:04:17;;;;;;;2.50;2.03;;;;;;;29.66;35.05;100473.63;5066987;28;20103;-64
2023/06/17 05:06:44;;;;;;;3.50;2.53;;;;;;;30.09;35.10;100471.56;5067121;28;20104;-64
2023/06/17 05:09:09;;;;;;;3.88;3.20;;;;;;;30.60;32.68;100474.13;5065909;28;20033;-64
2023/06/17 05:11:35;;;;;;;3.85;3.15;;;;;;;31.07;32.47;100475.19;5067417;28;20048;-66
2023/06/17 05:14:00;;;;;;;3.83;2.88;;;;;;;31.03;30.55;100473.75;5067104;28;20050;-63
2023/06/17 05:16:25;;;;;;;6.10;3.03;;;;;;;31.03;30.26;100468.41;5067509;28;20056;-64
2023/06/17 05:18:51;;;;;;;3.30;2.95;;;;;;;31.54;30.79;100476.97;5066873;28;20520;-64
2023/06/17 05:21:21;;;;;;;6.15;2.63;;;;;;;31.99;30.16;100469.09;5066985;28;20021;-64
2023/06/17 05:23:46;;;;;;;3.50;2.38;;;;;;;32.40;29.85;100470.44;5066862;28;20020;-64
2023/06/17 05:26:11;;;;;;;4.10;3.03;;;;;;;32.75;28.85;100473.28;5067091;28;20040;-64
2023/06/17 05:28:37;;;;;;;3.53;2.67;;;;;;;33.01;27.94;100470.56;5066838;28;20074;-63
2023/06/17 05:31:02;;;;;;;2.63;2.42;;;;;;;33.24;27.41;100469.19;5066872;28;20025;-63
2023/06/17 05:33:29;;;;;;;5.50;2.92;;;;;;;33.67;28.26;100479.97;5067004;28;20021;-64
2023/06/17 05:35:55;;;;;;;6.18;2.33;;;;;;;33.92;26.99;100477.31;5066886;28;20037;-64
2023/06/17 05:38:20;;;;;;;2.22;2.03;;;;;;;34.45;27.68;100484.28;5066541;28;20025;-64
2023/06/17 05:40:45;;;;;;;3.30;2.50;;;;;;;34.79;25.83;100479.72;5066821;28;20017;-65
2023/06/17 05:43:11;;;;;;;2.40;2.20;;;;;;;34.60;24.74;100474.50;5065000;28;20052;-64
2023/06/17 05:45:36;;;;;;;3.50;2.20;;;;;;;35.01;25.64;100477.31;5066740;28;20029;-64
2023/06/17 05:48:02;;;;;;;3.08;2.05;;;;;;;35.22;25.50;100479.47;5066548;28;20294;-64
2023/06/17 05:50:27;;;;;;;2.63;2.28;;;;;;;35.47;24.69;100473.97;5066320;28;20052;-63
2023/06/17 05:52:52;;;;;;;2.90;2.20;;;;;;;35.52;25.00;100482.38;5066547;28;20052;-64
2023/06/17 05:55:18;;;;;;;3.15;2.25;;;;;;;35.51;25.19;100482.53;5066392;28;20025;-65
2023/06/17 05:57:43;;;;;;;2.17;1.85;;;;;;;35.77;24.73;100479.56;5066446;28;20028;-65
2023/06/17 06:00:10;;;;;;;3.17;2.22;;;;;;;35.78;25.01;100478.56;5066083;28;20029;-64
2023/06/17 06:02:35;;;;;;;3.70;2.28;;;;;;;35.85;24.96;100478.66;5066401;28;20054;-65
2023/06/17 06:05:00;;;;;;;3.85;2.97;;;;;;;35.87;24.93;100490.13;5066231;28;20485;-65
2023/06/17 06:07:26;;;;;;;2.90;2.28;;;;;;;36.05;24.65;100484.44;5066150;28;20393;-65
2023/06/17 06:09:51;;;;;;;2.95;1.80;;;;;;;36.14;24.48;100487.06;5066037;28;20029;-64
2023/06/17 06:12:16;;;;;;;3.33;2.47;;;;;;;35.60;23.90;100492.28;5066111;28;20021;-64
2023/06/17 06:14:42;;;;;;;2.47;2.28;;;;;;;35.65;24.33;100492.59;5065977;28;20013;-65
2023/06/17 06:17:08;;;;;;;3.33;2.10;;;;;;;35.69;24.43;100490.41;5064569;28;20021;-63
2023/06/17 06:19:33;;;;;;;2.53;2.30;;;;;;;35.67;24.67;100479.78;5065694;28;20619;-63
2023/06/17 06:21:59;;;;;;;3.63;2.03;;;;;;;35.78;24.37;100488.50;5066059;28;20025;-63
2023/06/17 06:24:24;;;;;;;2.55;2.35;;;;;;;35.75;24.30;100486.16;5065865;28;20024;-63
2023/06/17 06:26:50;;;;;;;4.60;2.25;;;;;;;35.87;24.27;100497.38;5066027;28;20024;-63
2023/06/17 06:29:15;;;;;;;3.13;2.33;;;;;;;35.72;24.01;100490.06;5065432;28;20074;-63
2023/06/17 06:31:43;;;;;;;5.20;2.70;;;;;;;35.56;24.14;100488.25;5065734;28;20040;-64
2023/06/17 06:34:08;;;;;;;4.63;2.13;;;;;;;35.93;23.99;100492.09;5065464;28;20017;-65
2023/06/17 06:36:34;;;;;;;2.50;2.30;;;;;;;35.72;23.50;100484.66;5065545;28;20060;-63
2023/06/17 06:38:59;;;;;;;2.72;2.33;;;;;;;35.37;23.72;100486.84;5064951;28;20029;-64
2023/06/17 06:41:25;;;;;;;2.47;2.10;;;;;;;34.77;23.25;100490.69;5065505;28;20366;-63
2023/06/17 06:43:50;;;;;;;2.67;2.33;;;;;;;34.68;23.68;100489.00;5065203;28;20036;-63
2023/06/17 06:46:16;;;;;;;3.33;2.78;;;;;;;34.57;23.62;100492.88;5065598;28;20043;-63
2023/06/17 06:48:41;;;;;;;2.63;2.08;;;;;;;34.53;23.85;100492.38;5065213;28;20016;-63
2023/06/17 06:51:07;;;;;;;2.85;2.55;;;;;;;34.62;23.25;100501.28;5065372;28;20021;-62
2023/06/17 06:53:32;;;;;;;7.55;2.97;;;;;;;34.65;23.49;100500.94;5065567;28;20088;-63
2023/06/17 06:55:57;;;;;;;2.00;1.80;;;;;;;34.75;23.03;100490.00;5065480;28;20021;-62
2023/06/17 06:58:23;;;;;;;2.65;2.13;;;;;;;34.46;23.24;100494.91;5065003;28;20029;-63
2023/06/17 07:00:48;;;;;;;3.00;2.70;;;;;;;34.21;23.47;100488.66;5065327;28;20077;-63
2023/06/17 07:03:14;;;;;;;3.33;2.78;;;;;;;34.10;23.68;100496.03;5065310;28;20090;-63
2023/06/17 07:05:39;;;;;;;2.83;2.53;;;;;;;33.87;23.62;100493.13;5065270;28;20025;-63
2023/06/17 07:08:04;;;;;;;2.85;2.55;;;;;;;34.23;23.72;100486.66;5065027;28;20025;-64
2023/06/17 07:10:30;;;;;;;3.63;3.05;;;;;;;34.36;22.78;100486.97;5064821;28;20060;-63
2023/06/17 07:12:56;;;;;;;2.92;2.58;;;;;;;34.25;22.95;100473.88;5065102;28;20059;-61
2023/06/17 07:15:21;;;;;;;3.78;2.65;;;;;;;34.69;23.37;100485.31;5064932;28;20021;-63
2023/06/17 07:17:47;;;;;;;3.72;2.58;;;;;;;35.18;23.16;100499.69;5063376;28;20028;-62
2023/06/17 07:20:12;;;;;;;3.75;2.80;;;;;;;35.14;22.51;100496.50;5064648;28;20072;-63
2023/06/17 07:22:37;;;;;;;4.90;3.22;;;;;;;34.69;22.32;100493.38;5064874;28;20032;-63
2023/06/17 07:25:03;;;;;;;4.40;3.20;;;;;;;34.20;22.91;100497.75;5064717;28;20054;-62
2023/06/17 07:27:29;;;;;;;2.85;2.30;;;;;;;34.35;23.23;100489.84;5064796;28;20017;-63
2023/06/17 07:29:54;;;;;;;3.03;2.65;;;;;;;34.79;23.18;100494.06;5064438;28;20031;-64
2023/06/17 07:32:20;;;;;;;3.83;2.95;;;;;;;35.15;23.14;100491.94;5064702;28;20116;-62
2023/06/17 07:34:45;;;;;;;2.33;2.13;;;;;;;35.53;23.09;100491.31;5063372;28;20090;-63
2023/06/17 07:37:11;;;;;;;2.03;1.88;;;;;;;36.01;22.92;100488.50;5064668;28;20033;-63
2023/06/17 07:39:36;;;;;;;3.45;2.28;;;;;;;36.25;22.47;100488.56;5064421;28;20025;-64
2023/06/17 07:42:02;;;;;;;4.40;2.83;;;;;;;36.40;21.11;100489.44;5064638;28;20021;-63
2023/06/17 07:44:27;;;;;;;3.40;3.08;;;;;;;36.32;21.63;100484.09;5064482;28;20484;-64
2023/06/17 07:46:52;;;;;;;4.10;3.13;;;;;;;36.10;20.85;100486.59;5064761;28;20025;-63
2023/06/17 07:49:18;;;;;;;2.13;1.88;;;;;;;35.34;21.69;100483.47;5063146;28;20064;-65
2023/06/17 07:51:43;;;;;;;5.15;3.20;;;;;;;35.26;21.93;100491.59;5064606;28;20035;-65
2023/06/17 07:54:08;;;;;;;3.22;2.72;;;;;;;35.17;21.95;100479.13;5064541;28;20029;-65
2023/06/17 07:56:34;;;;;;;3.80;3.30;;;;;;;34.85;22.04;100484.44;5064693;28;20013;-63
2023/06/17 07:58:59;;;;;;;3.58;3.28;;;;;;;34.76;22.58;100489.03;5064561;28;20028;-64
2023/06/17 08:01:25;;;;;;;4.22;3.30;;;;;;;34.70;21.96;100487.00;5064652;28;20017;-64
2023/06/17 08:03:50;;;;;;;4.55;3.13;;;;;;;34.31;21.91;100483.97;5064540;28;20435;-64
2023/06/17 08:06:16;;;;;;;3.90;2.88;;;;;;;34.07;22.62;100477.53;5064483;28;20109;-63
2023/06/17 08:08:42;;;;;;;3.97;3.03;;;;;;;34.62;22.52;100475.19;5063278;28;20103;-63
2023/06/17 08:11:08;;;;;;;4.68;2.90;;;;;;;35.06;22.41;100480.34;5064341;28;20036;-64
2023/06/17 08:13:33;;;;;;;3.38;2.75;;;;;;;35.21;21.75;100475.09;5064258;28;20021;-64
2023/06/17 08:15:58;;;;;;;3.10;2.70;;;;;;;35.17;21.76;100481.81;5064353;28;20021;-60
2023/06/17 08:18:24;;;;;;;10.43;3.22;;;;;;;35.22;21.78;100474.06;5064209;28;20461;-59
2023/06/17 08:20:49;;;;;;;3.58;3.20;;;;;;;34.96;21.79;100475.13;5064336;28;20045;-53
2023/06/17 08:23:15;;;;;;;1.95;1.75;;;;;;;34.72;22.26;100468.78;5064033;28;20029;-52
2023/06/17 08:25:40;;;;;;;2.70;2.30;;;;;;;35.06;21.79;100470.41;5064125;28;20025;-52
2023/06/17 08:28:06;;;;;;;2.75;2.33;;;;;;;34.88;21.66;100469.75;5064540;28;20032;-53
2023/06/17 08:30:31;;;;;;;5.18;2.78;;;;;;;34.88;21.54;100465.22;5064019;28;20021;-52
2023/06/17 08:32:57;;;;;;;2.67;2.47;;;;;;;34.28;21.78;100468.13;5064186;28;20044;-54
2023/06/17 08:35:23;;;;;;;3.72;2.60;;;;;;;34.21;21.78;100465.28;5064140;28;20025;-56
2023/06/17 08:37:48;;;;;;;3.60;2.67;;;;;;;34.46;21.75;100459.03;5064127;28;20032;-56
2023/06/17 08:40:15;;;;;;;3.03;2.30;;;;;;;34.99;22.02;100464.00;5064923;28;20033;-56
2023/06/17 08:42:41;;;;;;;3.22;2.35;;;;;;;35.47;21.03;100458.63;5067637;28;20036;-52
2023/06/17 08:45:08;;;;;;;2.75;2.42;;;;;;;35.19;20.52;100463.59;5067719;28;20045;-53
2023/06/17 08:47:35;;;;;;;3.78;2.50;;;;;;;35.16;20.56;100459.38;5067366;28;20499;-54
2023/06/17 08:50:01;;;;;;;3.58;2.53;;;;;;;35.28;20.69;100451.78;5067293;28;20033;-54
2023/06/17 08:52:28;;;;;;;3.45;2.72;;;;;;;35.79;20.28;100458.63;5067411;28;20032;-54
2023/06/17 08:54:55;;;;;;;3.78;2.30;;;;;;;35.68;19.39;100451.75;5067287;28;20051;-55
2023/06/17 08:57:20;;;;;;;4.35;2.67;;;;;;;35.14;19.51;100455.19;5067418;28;20174;-52
2023/06/17 08:59:46;;;;;;;2.85;2.53;;;;;;;34.66;19.85;100446.03;5067100;28;20029;-54
2023/06/17 09:02:14;;;;;;;6.97;2.38;;;;;;;34.72;20.54;100445.38;5067227;28;20047;-50
2023/06/17 09:04:40;;;;;;;4.80;3.00;;;;;;;34.98;20.07;100449.69;5067007;28;20075;-53
2023/06/17 09:07:09;;;;;;;3.00;2.53;;;;;;;34.72;19.99;100449.91;5067266;28;20103;-50
2023/06/17 09:09:35;;;;;;;3.05;2.67;;;;;;;34.74;20.32;100446.06;5067071;28;20484;-54
2023/06/17 09:12:05;;;;;;;4.57;2.25;;;;;;;34.80;20.09;100449.06;5067118;28;20029;-53
2023/06/17 09:14:32;;;;;;;2.65;2.30;;;;;;;34.92;20.33;100441.44;5066978;28;20321;-53
2023/06/17 09:16:58;;;;;;;2.95;2.40;;;;;;;35.11;19.56;100446.41;5067120;28;20029;-54
2023/06/17 09:19:24;;;;;;;4.15;2.78;;;;;;;34.81;19.78;100451.56;5066710;28;20071;-53
2023/06/17 09:21:49;;;;;;;4.35;2.67;;;;;;;34.24;19.76;100434.44;5066912;28;20465;-54
2023/06/17 09:24:15;;;;;;;2.47;2.15;;;;;;;34.18;20.33;100437.81;5066946;28;20033;-55
2023/06/17 09:26:41;;;;;;;3.03;2.72;;;;;;;34.38;19.91;100432.91;5066834;28;20036;-52
2023/06/17 09:29:09;;;;;;;3.80;2.50;;;;;;;34.33;19.70;100424.53;5066626;28;20024;-52
2023/06/17 09:31:56;;;;;;;5.70;3.60;;;;;;;34.06;19.84;100424.66;5066841;28;20067;-53
2023/06/17 09:34:22;;;;;;;2.47;2.13;;;;;;;33.49;20.00;100434.28;5066342;28;20060;-51
2023/06/17 09:37:00;;;;;;;2.58;2.17;;;;;;;32.43;20.35;100423.63;5066684;28;20024;-54
2023/06/17 09:39:30;;;;;;;5.65;2.47;;;;;;;31.63;21.05;100413.50;5066506;28;20089;-56
2023/06/17 09:41:56;;;;;;;7.55;2.78;;;;;;;31.09;21.44;100427.59;5066737;28;20420;-53
2023/06/17 09:44:23;;;;;;;3.67;2.40;;;;;;;30.58;22.13;100427.88;5066243;28;20048;-55
2023/06/17 09:46:50;;;;;;;3.38;2.30;;;;;;;31.06;22.48;100414.50;5066510;28;20025;-53
2023/06/17 09:49:23;;;;;;;3.20;2.25;;;;;;;31.64;21.90;100411.69;5066332;28;20017;-55
2023/06/17 09:51:51;;;;;;;3.35;2.28;;;;;;;32.28;20.99;100419.69;5066150;28;20027;-55
2023/06/17 09:54:18;;;;;;;4.07;2.28;;;;;;;31.96;20.98;100417.53;5066358;28;20029;-57
2023/06/17 09:56:45;;;;;;;2.17;1.98;;;;;;;31.13;21.39;100425.47;5066385;28;20029;-54
2023/06/17 09:59:11;;;;;;;1.85;1.67;;;;;;;30.56;21.84;100411.13;5066119;28;20051;-53
2023/06/17 10:01:40;;;;;;;2.58;2.17;;;;;;;29.90;22.14;100429.59;5064862;28;20020;-56
2023/06/17 10:04:09;;;;;;;3.45;2.42;;;;;;;29.26;22.29;100416.47;5066114;28;20028;-52
2023/06/17 10:06:37;;;;;;;5.38;1.92;;;;;;;28.90;23.03;100411.50;5066166;28;20029;-54
2023/06/17 10:09:07;;;;;;;2.90;2.38;;;;;;;29.27;23.00;100423.50;5065985;28;20025;-65
2023/06/17 10:11:34;;;;;;;3.85;2.83;;;;;;;29.59;22.40;100414.47;5064627;28;20035;-66
2023/06/17 10:14:06;;;;;;;2.30;2.08;;;;;;;30.02;22.42;100406.19;5065731;28;20092;-65
2023/06/17 10:16:36;;;;;;;3.13;2.40;;;;;;;30.41;21.44;100398.19;5064998;28;20028;-64
2023/06/17 10:19:05;;;;;;;4.88;2.50;;;;;;;30.62;20.82;100407.00;5065753;28;20057;-64
2023/06/17 10:21:33;;;;;;;2.58;2.13;;;;;;;30.68;20.92;100412.63;5065982;28;20265;-66
2023/06/17 10:24:00;;;;;;;2.75;2.10;;;;;;;30.63;21.11;100409.53;5065961;28;20024;-62
2023/06/17 10:26:28;;;;;;;1.80;1.58;;;;;;;30.25;21.17;100405.94;5064789;28;20055;-60
2023/06/17 10:28:53;;;;;;;3.17;1.90;;;;;;;29.85;21.41;100405.91;5066006;28;20070;-60
2023/06/17 10:31:37;;;;;;;3.42;2.00;;;;;;;29.54;21.27;100406.81;5065587;28;20037;-53
2023/06/17 10:34:03;;;;;;;2.88;2.13;;;;;;;28.90;21.54;100416.88;5065770;28;20489;-50
2023/06/17 10:36:31;;;;;;;2.22;1.98;;;;;;;28.36;22.54;100417.78;5065793;28;20028;-53
2023/06/17 10:39:03;;;;;;;2.70;2.08;;;;;;;28.05;22.79;100409.66;5065512;28;20051;-54
2023/06/17 10:41:55;;;;;;;2.33;1.58;;;;;;;28.23;22.96;100411.78;5065956;28;20021;-52
2023/06/17 10:44:32;;;;;;;3.50;2.25;;;;;;;29.49;22.55;100397.53;5062395;28;20037;-54
2023/06/17 10:46:58;;;;;;;5.15;1.90;;;;;;;30.51;20.66;100397.31;5065102;28;20049;-53
2023/06/17 10:49:24;;;;;;;3.85;2.05;;;;;;;30.36;20.67;100394.22;5065304;28;20080;-54
2023/06/17 10:51:51;;;;;;;3.05;2.22;;;;;;;29.81;20.48;100383.09;5065288;28;20036;-53
2023/06/17 10:54:31;;;;;;;3.35;2.42;;;;;;;29.30;21.04;100385.78;5065232;28;20025;-58
2023/06/17 10:56:59;;;;;;;3.22;2.05;;;;;;;28.95;21.44;100394.13;5065459;28;20032;-52
2023/06/17 10:59:28;;;;;;;2.03;1.70;;;;;;;28.66;21.39;100396.63;5065052;28;20020;-53
2023/06/17 11:02:06;;;;;;;6.32;2.58;;;;;;;28.33;21.56;100391.34;5065282;28;20032;-56
2023/06/17 11:04:32;;;;;;;2.28;1.90;;;;;;;28.07;21.87;100399.69;5064732;28;20054;-54
2023/06/17 11:06:59;;;;;;;5.82;2.30;;;;;;;27.83;22.21;100398.06;5065361;28;20032;-53
2023/06/17 11:09:25;;;;;;;4.50;2.67;;;;;;;27.66;22.48;100389.63;5064579;28;20025;-52
2023/06/17 11:11:52;;;;;;;2.38;1.80;;;;;;;27.56;22.94;100391.31;5064826;28;20032;-55
2023/06/17 11:14:18;;;;;;;3.13;2.40;;;;;;;27.46;23.09;100400.06;5064855;28;20017;-52
2023/06/17 11:16:43;;;;;;;2.22;1.80;;;;;;;27.43;23.13;100400.31;5065089;28;20484;-55
2023/06/17 11:19:09;;;;;;;5.13;2.33;;;;;;;27.50;23.25;100394.50;5064498;28;20049;-54
2023/06/17 11:21:35;;;;;;;5.45;2.25;;;;;;;27.71;23.31;100391.94;5064795;28;20032;-55